Time;durP1;ratioP1;P1;durP2;ratioP2;P2;SDS_P1;SDS_P2;PMS_P1;PMS_P2;Temp;Humidity;BMP_temperature;BMP_pressure;BME280_temperature;BME280_humidity;BME280_pressure;Samples;Min_cycle;Max_cycle;Signal;HPM_P1;HPM_P2
2022/09/19 00:02:23;;;;;;;;;;;12.20;99.90;;;;;;4997695;28;20000;-86
2022/09/19 00:04:48;;;;;;;;;;;12.20;99.90;;;;;;4979421;28;19952;-86
2022/09/19 00:07:14;;;;;;;;;;;12.20;99.90;;;;;;4979664;28;19964;-87
2022/09/19 00:09:39;;;;;;;;;;;12.10;99.90;;;;;;4996724;28;19952;-87
2022/09/19 00:12:05;;;;;;;;;;;12.10;99.90;;;;;;4979861;28;20438;-86
2022/09/19 00:14:33;;;;;;;;;;;12.10;99.90;;;;;;4996954;28;19960;-86
2022/09/19 00:17:07;;;;;;;;;;;12.10;99.90;;;;;;4996440;28;19906;-86
2022/09/19 00:19:33;;;;;;;;;;;12.10;99.90;;;;;;4979158;28;19921;-85
2022/09/19 00:22:00;;;;;;;;;;;12.10;99.90;;;;;;4960587;28;19914;-86
2022/09/19 00:27:10;;;;;;;;;;;12.10;99.90;;;;;;4991025;28;19924;-86
2022/09/19 00:29:37;;;;;;;;;;;12.20;99.90;;;;;;4997222;28;19912;-86
2022/09/19 00:32:07;;;;;;;;;;;12.20;99.90;;;;;;4995837;28;19921;-87
2022/09/19 00:34:32;;;;;;;;;;;12.20;99.90;;;;;;4997060;28;19925;-88
2022/09/19 00:36:58;;;;;;;;;;;12.20;99.90;;;;;;4997663;28;20004;-87
2022/09/19 00:39:29;;;;;;;;;;;12.20;99.90;;;;;;4996505;28;19912;-86
2022/09/19 00:41:58;;;;;;;;;;;12.20;99.90;;;;;;4980108;28;19914;-86
2022/09/19 00:44:29;;;;;;;;;;;12.30;99.90;;;;;;4979836;28;19945;-86
2022/09/19 00:46:59;;;;;;;;;;;12.30;99.90;;;;;;4980193;28;19918;-87
2022/09/19 00:49:30;;;;;;;;;;;12.20;99.90;;;;;;4997937;28;20369;-86
2022/09/19 00:52:03;;;;;;;;;;;12.20;99.90;;;;;;4996761;28;20004;-86
2022/09/19 00:54:33;;;;;;;;;;;12.10;99.90;;;;;;4980315;28;20012;-86
2022/09/19 00:57:00;;;;;;;;;;;12.10;99.90;;;;;;4979851;28;19932;-86
2022/09/19 00:59:29;;;;;;;;;;;12.10;99.90;;;;;;4979744;28;19929;-86
2022/09/19 01:01:55;;;;;;;;;;;12.10;99.90;;;;;;4997011;28;19918;-86
2022/09/19 01:04:22;;;;;;;;;;;12.10;99.90;;;;;;4979943;28;19906;-86
2022/09/19 01:07:06;;;;;;;;;;;12.00;99.90;;;;;;4997307;28;20359;-87
2022/09/19 01:09:50;;;;;;;;;;;12.00;99.90;;;;;;4979543;28;19992;-85
2022/09/19 01:12:37;;;;;;;;;;;12.00;99.90;;;;;;4997120;28;19971;-87
2022/09/19 01:15:12;;;;;;;;;;;12.00;99.90;;;;;;4999369;28;19917;-87
2022/09/19 01:17:45;;;;;;;;;;;12.10;99.90;;;;;;4993305;28;19897;-86
2022/09/19 01:20:19;;;;;;;;;;;12.20;99.90;;;;;;5018945;28;19894;-86
2022/09/19 01:23:05;;;;;;;;;;;12.30;99.90;;;;;;5016794;28;19920;-86
2022/09/19 01:25:33;;;;;;;;;;;12.30;99.90;;;;;;4997511;28;20008;-86
2022/09/19 01:28:09;;;;;;;;;;;12.40;99.90;;;;;;4982978;28;19905;-86
2022/09/19 01:30:36;;;;;;;;;;;12.40;99.90;;;;;;4982070;28;19980;-87
2022/09/19 01:33:07;;;;;;;;;;;12.40;99.90;;;;;;4977693;28;19960;-86
2022/09/19 01:35:37;;;;;;;;;;;12.30;99.90;;;;;;4978119;28;19910;-87
2022/09/19 01:38:03;;;;;;;;;;;12.40;99.90;;;;;;4978482;28;19945;-86
2022/09/19 01:40:29;;;;;;;;;;;12.40;99.90;;;;;;4996202;28;19941;-86
2022/09/19 01:42:55;;;;;;;;;;;12.30;99.90;;;;;;4978625;28;19969;-87
2022/09/19 01:45:25;;;;;;;;;;;12.20;99.90;;;;;;4978406;28;19955;-86
2022/09/19 01:47:58;;;;;;;;;;;12.20;99.90;;;;;;4978358;28;20330;-86
2022/09/19 01:50:31;;;;;;;;;;;12.20;99.90;;;;;;4995323;28;19913;-86
2022/09/19 01:52:59;;;;;;;;;;;12.20;99.90;;;;;;4995052;28;20024;-86
2022/09/19 01:55:25;;;;;;;;;;;12.10;99.90;;;;;;4995205;28;19968;-86
2022/09/19 01:58:09;;;;;;;;;;;12.10;99.90;;;;;;4977311;28;19906;-86
2022/09/19 02:00:37;;;;;;;;;;;12.10;99.90;;;;;;4994588;28;19920;-87
2022/09/19 02:03:22;;;;;;;;;;;12.00;99.90;;;;;;4977853;28;20401;-86
2022/09/19 02:05:51;;;;;;;;;;;12.00;99.90;;;;;;4995416;28;19960;-87
2022/09/19 02:08:21;;;;;;;;;;;12.00;99.90;;;;;;4995489;28;19916;-87
2022/09/19 02:10:56;;;;;;;;;;;12.00;99.90;;;;;;4977665;28;20260;-87
2022/09/19 02:13:24;;;;;;;;;;;11.90;99.90;;;;;;4977833;28;19921;-86
2022/09/19 02:15:55;;;;;;;;;;;11.90;99.90;;;;;;4995841;28;19906;-86
2022/09/19 02:18:34;;;;;;;;;;;11.90;99.90;;;;;;4978312;28;20351;-86
2022/09/19 02:21:03;;;;;;;;;;;11.80;99.90;;;;;;4977609;28;19913;-87
2022/09/19 02:23:32;;;;;;;;;;;11.80;99.90;;;;;;4977359;28;19933;-86
2022/09/19 02:25:59;;;;;;;;;;;11.70;99.90;;;;;;4977795;28;19917;-86
2022/09/19 02:28:29;;;;;;;;;;;11.70;99.90;;;;;;4995133;28;20004;-86
2022/09/19 02:30:54;;;;;;;;;;;11.70;99.90;;;;;;4977847;28;19973;-86
2022/09/19 02:33:20;;;;;;;;;;;11.70;99.90;;;;;;4994385;28;19921;-86
2022/09/19 02:35:51;;;;;;;;;;;11.60;99.90;;;;;;4977258;28;20279;-86
2022/09/19 02:38:33;;;;;;;;;;;11.60;99.90;;;;;;4995246;28;19917;-88
2022/09/19 02:41:17;;;;;;;;;;;11.60;99.90;;;;;;4977900;28;19906;-85
2022/09/19 02:44:06;;;;;;;;;;;11.60;99.90;;;;;;4977917;28;19906;-86
2022/09/19 02:46:40;;;;;;;;;;;11.60;99.90;;;;;;4937778;29;20005;-86
2022/09/19 02:49:10;;;;;;;;;;;11.60;99.90;;;;;;4953739;29;19970;-87
2022/09/19 02:51:42;;;;;;;;;;;11.60;99.90;;;;;;4953709;29;19926;-86
2022/09/19 02:54:15;;;;;;;;;;;11.60;99.90;;;;;;4953637;29;20276;-88
2022/09/19 02:56:41;;;;;;;;;;;11.60;99.90;;;;;;4954069;29;20455;-88
2022/09/19 02:59:10;;;;;;;;;;;11.60;99.90;;;;;;4954340;29;19930;-87
2022/09/19 03:01:38;;;;;;;;;;;11.50;99.90;;;;;;4954338;29;19938;-86
2022/09/19 03:04:12;;;;;;;;;;;11.50;99.90;;;;;;4954124;29;19970;-85
2022/09/19 03:07:00;;;;;;;;;;;11.50;99.90;;;;;;4954224;29;19907;-88
2022/09/19 03:09:27;;;;;;;;;;;11.50;99.90;;;;;;4953789;29;19961;-85
2022/09/19 03:11:57;;;;;;;;;;;11.50;99.90;;;;;;4953345;29;19910;-85
2022/09/19 03:14:25;;;;;;;;;;;11.40;99.90;;;;;;4953632;29;19911;-86
2022/09/19 03:16:56;;;;;;;;;;;11.40;99.90;;;;;;4937602;29;19910;-85
2022/09/19 03:19:23;;;;;;;;;;;11.30;99.90;;;;;;4953743;28;19911;-85
2022/09/19 03:21:51;;;;;;;;;;;11.30;99.90;;;;;;4937847;29;19918;-87
2022/09/19 03:24:17;;;;;;;;;;;11.30;99.90;;;;;;4986503;28;19906;-88
2022/09/19 03:26:42;;;;;;;;;;;11.30;99.90;;;;;;4994175;28;19918;-87
2022/09/19 03:29:08;;;;;;;;;;;11.30;99.90;;;;;;4994709;28;20008;-85
2022/09/19 03:31:34;;;;;;;;;;;11.20;99.90;;;;;;4994289;28;20260;-85
2022/09/19 03:34:00;;;;;;;;;;;11.20;99.90;;;;;;4994351;28;20332;-85
2022/09/19 03:36:29;;;;;;;;;;;11.20;99.90;;;;;;4977396;28;19917;-86
2022/09/19 03:38:59;;;;;;;;;;;11.20;99.90;;;;;;4977813;28;19997;-86
2022/09/19 03:41:24;;;;;;;;;;;11.20;99.90;;;;;;4977286;28;19910;-86
2022/09/19 03:43:50;;;;;;;;;;;11.20;99.90;;;;;;4994381;28;19905;-85
2022/09/19 03:46:17;;;;;;;;;;;11.20;99.90;;;;;;4977264;28;19906;-86
2022/09/19 03:48:45;;;;;;;;;;;11.20;99.90;;;;;;4995115;28;19945;-86
2022/09/19 03:51:11;;;;;;;;;;;11.20;99.90;;;;;;4996243;28;19909;-85
2022/09/19 03:53:37;;;;;;;;;;;11.20;99.90;;;;;;4978610;28;19917;-85
2022/09/19 03:56:03;;;;;;;;;;;11.20;99.90;;;;;;4978411;28;19905;-86
2022/09/19 03:58:30;;;;;;;;;;;11.20;99.90;;;;;;4995394;28;19918;-87
2022/09/19 04:00:58;;;;;;;;;;;11.20;99.90;;;;;;4997577;28;19913;-85
2022/09/19 04:03:24;;;;;;;;;;;11.20;99.90;;;;;;5000402;28;19906;-85
2022/09/19 04:05:50;;;;;;;;;;;11.20;99.90;;;;;;5002286;28;20001;-86
2022/09/19 04:08:16;;;;;;;;;;;11.30;99.90;;;;;;5000663;28;19918;-87
2022/09/19 04:10:42;;;;;;;;;;;11.40;99.90;;;;;;4977075;28;19997;-86
2022/09/19 04:13:08;;;;;;;;;;;11.50;99.90;;;;;;4979229;28;19913;-84
2022/09/19 04:15:34;;;;;;;;;;;11.60;99.90;;;;;;4975846;28;20363;-86
2022/09/19 04:18:03;;;;;;;;;;;11.70;99.90;;;;;;4976395;28;19918;-86
2022/09/19 04:20:30;;;;;;;;;;;11.70;99.90;;;;;;4977288;28;20351;-86
2022/09/19 04:23:00;;;;;;;;;;;11.70;99.90;;;;;;4993315;28;19914;-86
2022/09/19 04:25:28;;;;;;;;;;;11.70;99.90;;;;;;4975915;28;19918;-85
2022/09/19 04:27:54;;;;;;;;;;;11.70;99.90;;;;;;4976069;28;19912;-86
2022/09/19 04:30:25;;;;;;;;;;;11.70;99.90;;;;;;4993549;28;19973;-86
2022/09/19 04:32:51;;;;;;;;;;;11.70;99.90;;;;;;4976077;28;20359;-85
2022/09/19 04:35:17;;;;;;;;;;;11.70;99.90;;;;;;4993501;28;19906;-85
2022/09/19 04:37:43;;;;;;;;;;;11.70;99.90;;;;;;4976316;28;20359;-86
2022/09/19 04:40:08;;;;;;;;;;;11.60;99.90;;;;;;4976072;28;20024;-86
2022/09/19 04:42:35;;;;;;;;;;;11.60;99.90;;;;;;4976057;28;20472;-86
2022/09/19 04:45:01;;;;;;;;;;;11.60;99.90;;;;;;4994377;28;20114;-86
2022/09/19 04:47:28;;;;;;;;;;;11.60;99.90;;;;;;4979774;28;20025;-86
2022/09/19 04:49:56;;;;;;;;;;;11.50;99.90;;;;;;4997061;28;19905;-87
2022/09/19 04:52:23;;;;;;;;;;;11.50;99.90;;;;;;4996868;28;19918;-85
2022/09/19 04:54:49;;;;;;;;;;;11.50;99.90;;;;;;4979207;28;19913;-86
2022/09/19 04:57:15;;;;;;;;;;;11.50;99.90;;;;;;4979006;28;19914;-86
2022/09/19 04:59:46;;;;;;;;;;;11.50;99.90;;;;;;4996647;28;19912;-86
2022/09/19 05:02:14;;;;;;;;;;;11.50;99.90;;;;;;4996455;28;19984;-86
2022/09/19 05:04:41;;;;;;;;;;;11.40;99.90;;;;;;4994900;28;19906;-86
2022/09/19 05:07:08;;;;;;;;;;;11.40;99.90;;;;;;4996270;28;20378;-87
2022/09/19 05:09:35;;;;;;;;;;;11.40;99.90;;;;;;4978321;28;19928;-86
2022/09/19 05:12:01;;;;;;;;;;;11.40;99.90;;;;;;4994295;28;19918;-86
2022/09/19 05:14:26;;;;;;;;;;;11.30;99.90;;;;;;4978181;28;20362;-86
2022/09/19 05:16:52;;;;;;;;;;;11.30;99.90;;;;;;4995173;28;19912;-85
2022/09/19 05:19:21;;;;;;;;;;;11.30;99.90;;;;;;4977638;28;20019;-86
2022/09/19 05:21:49;;;;;;;;;;;11.30;99.90;;;;;;4977973;28;19977;-86
2022/09/19 05:24:16;;;;;;;;;;;11.30;99.90;;;;;;4995522;28;19910;-86
2022/09/19 05:26:41;;;;;;;;;;;11.30;99.90;;;;;;4977698;28;19922;-86
2022/09/19 05:29:08;;;;;;;;;;;11.30;99.90;;;;;;4995014;28;20335;-85
2022/09/19 05:31:35;;;;;;;;;;;11.20;99.90;;;;;;4977105;28;19910;-86
2022/09/19 05:34:02;;;;;;;;;;;11.20;99.90;;;;;;4991871;28;19937;-86
2022/09/19 05:36:30;;;;;;;;;;;11.10;99.90;;;;;;4994454;28;20344;-86
2022/09/19 05:38:57;;;;;;;;;;;11.10;99.90;;;;;;4994861;28;19929;-87
2022/09/19 05:41:23;;;;;;;;;;;11.10;99.90;;;;;;4992724;28;19910;-85
2022/09/19 05:43:48;;;;;;;;;;;11.10;99.90;;;;;;4995213;28;19988;-86
2022/09/19 05:46:14;;;;;;;;;;;11.10;99.90;;;;;;4979097;28;19910;-85
2022/09/19 05:48:43;;;;;;;;;;;11.10;99.90;;;;;;4995081;28;19905;-86
2022/09/19 05:51:09;;;;;;;;;;;11.10;99.90;;;;;;4978283;28;19906;-85
2022/09/19 05:53:53;;;;;;;;;;;11.10;99.90;;;;;;4962373;28;19932;-86
2022/09/19 05:56:19;;;;;;;;;;;11.00;99.90;;;;;;4977918;28;19910;-86
2022/09/19 05:58:44;;;;;;;;;;;11.00;99.90;;;;;;4995061;28;19914;-85
2022/09/19 06:01:11;;;;;;;;;;;11.00;99.90;;;;;;4977530;28;20438;-85
2022/09/19 06:03:38;;;;;;;;;;;10.90;99.90;;;;;;4994421;28;20080;-85
2022/09/19 06:06:11;;;;;;;;;;;10.90;99.90;;;;;;4974627;28;19920;-86
2022/09/19 06:08:41;;;;;;;;;;;10.90;99.90;;;;;;4977524;28;20561;-86
2022/09/19 06:11:13;;;;;;;;;;;10.90;99.90;;;;;;4974659;28;20005;-86
2022/09/19 06:16:24;;;;;;;;;;;11.00;99.90;;;;;;4991575;28;19917;-85
2022/09/19 06:18:49;;;;;;;;;;;11.00;99.90;;;;;;4993452;28;19967;-85
2022/09/19 06:21:15;;;;;;;;;;;11.00;99.90;;;;;;4977280;28;19952;-85
2022/09/19 06:23:41;;;;;;;;;;;11.00;99.90;;;;;;4994884;28;19914;-86
2022/09/19 06:26:06;;;;;;;;;;;11.00;99.90;;;;;;4977284;28;19918;-86
2022/09/19 06:28:32;;;;;;;;;;;11.00;99.90;;;;;;4977710;28;19909;-85
2022/09/19 06:31:08;;;;;;;;;;;11.00;99.90;;;;;;4993408;28;20048;-86
2022/09/19 06:33:34;;;;;;;;;;;11.00;99.90;;;;;;4976164;28;19918;-85
2022/09/19 06:36:01;;;;;;;;;;;11.00;99.90;;;;;;4993409;28;20045;-85
2022/09/19 06:38:27;;;;;;;;;;;11.00;99.90;;;;;;4975252;28;19917;-87
2022/09/19 06:40:52;;;;;;;;;;;11.00;99.90;;;;;;4975736;28;19906;-84
2022/09/19 06:43:18;;;;;;;;;;;11.10;99.90;;;;;;4992215;28;19906;-85
2022/09/19 06:45:44;;;;;;;;;;;11.00;99.90;;;;;;4992896;28;19910;-84
2022/09/19 06:48:10;;;;;;;;;;;11.10;99.90;;;;;;4975426;28;20047;-83
2022/09/19 06:50:36;;;;;;;;;;;11.00;99.90;;;;;;4975835;28;20008;-86
2022/09/19 06:53:02;;;;;;;;;;;11.10;99.90;;;;;;4992935;28;19914;-84
2022/09/19 06:55:29;;;;;;;;;;;11.10;99.90;;;;;;4992748;28;19914;-86
2022/09/19 06:57:59;;;;;;;;;;;11.10;99.90;;;;;;4992436;28;19906;-87
2022/09/19 07:00:25;;;;;;;;;;;11.10;99.90;;;;;;4975006;28;19906;-86
2022/09/19 07:02:53;;;;;;;;;;;11.10;99.90;;;;;;4992763;28;19918;-88
2022/09/19 07:05:19;;;;;;;;;;;11.10;99.90;;;;;;4992720;28;19906;-88
2022/09/19 07:07:45;;;;;;;;;;;11.10;99.90;;;;;;4975134;28;19976;-86
2022/09/19 07:10:10;;;;;;;;;;;11.10;99.90;;;;;;4992060;28;19917;-86
2022/09/19 07:12:36;;;;;;;;;;;11.20;99.90;;;;;;4992084;28;19913;-86
2022/09/19 07:15:01;;;;;;;;;;;11.20;99.90;;;;;;4975157;28;19910;-85
2022/09/19 07:17:27;;;;;;;;;;;11.20;99.90;;;;;;4992602;28;19909;-86
2022/09/19 07:19:53;;;;;;;;;;;11.30;99.90;;;;;;4992599;28;19949;-86
2022/09/19 07:22:20;;;;;;;;;;;11.30;99.90;;;;;;4990938;28;19945;-86
2022/09/19 07:24:46;;;;;;;;;;;11.30;99.90;;;;;;4992283;28;19924;-85
2022/09/19 07:27:12;;;;;;;;;;;11.30;99.90;;;;;;4975146;28;20016;-88
2022/09/19 07:29:37;;;;;;;;;;;11.30;99.90;;;;;;4993254;28;19963;-87
2022/09/19 07:32:04;;;;;;;;;;;11.30;99.90;;;;;;4991055;28;19909;-87
2022/09/19 07:34:31;;;;;;;;;;;11.30;99.90;;;;;;4991126;28;19914;-87
2022/09/19 07:36:56;;;;;;;;;;;11.40;99.90;;;;;;4975429;28;20382;-86
2022/09/19 07:39:22;;;;;;;;;;;11.40;99.90;;;;;;4992678;28;19959;-86
2022/09/19 07:41:47;;;;;;;;;;;11.50;99.90;;;;;;4991125;28;19913;-85
2022/09/19 07:44:13;;;;;;;;;;;11.50;99.90;;;;;;4992297;28;19929;-86
2022/09/19 07:47:26;;;;;;;;;;;11.60;99.90;;;;;;4990813;28;19917;-84
2022/09/19 07:49:24;;;;;;;;;;;11.60;99.90;;;;;;4990596;28;19917;-84
2022/09/19 07:51:52;;;;;;;;;;;11.60;99.90;;;;;;4974033;28;19913;-84
2022/09/19 07:54:18;;;;;;;;;;;11.70;99.90;;;;;;4990400;28;19952;-87
2022/09/19 07:56:44;;;;;;;;;;;11.70;99.90;;;;;;4974867;28;19960;-86
2022/09/19 07:59:10;;;;;;;;;;;11.80;99.90;;;;;;4989419;28;19914;-87
2022/09/19 08:01:36;;;;;;;;;;;11.80;99.90;;;;;;4987399;28;20284;-87
2022/09/19 08:04:01;;;;;;;;;;;11.90;99.90;;;;;;4975002;28;20278;-86
2022/09/19 08:11:19;;;;;;;;;;;12.00;99.90;;;;;;5004174;28;19921;-69
2022/09/19 08:13:45;;;;;;;;;;;12.10;99.90;;;;;;4994670;28;20120;-68
2022/09/19 08:16:10;;;;;;;;;;;12.10;99.90;;;;;;5009688;28;19909;-70
2022/09/19 08:18:36;;;;;;;;;;;12.10;99.90;;;;;;5010176;28;19917;-69
2022/09/19 08:21:02;;;;;;;;;;;12.10;99.90;;;;;;5012943;28;19920;-68
2022/09/19 08:23:29;;;;;;;;;;;12.10;99.90;;;;;;5014618;28;19959;-68
2022/09/19 08:25:55;;;;;;;;;;;12.10;99.90;;;;;;5014788;28;20383;-69
2022/09/19 08:28:22;;;;;;;;;;;12.20;99.90;;;;;;5015242;28;19922;-68
2022/09/19 08:30:48;;;;;;;;;;;12.10;99.90;;;;;;5014243;28;20395;-68
2022/09/19 08:33:14;;;;;;;;;;;12.20;99.90;;;;;;5013244;28;19924;-69
2022/09/19 08:35:41;;;;;;;;;;;12.20;99.90;;;;;;5010403;28;19909;-69
2022/09/19 08:38:08;;;;;;;;;;;12.20;99.90;;;;;;5011023;28;19909;-69
2022/09/19 08:40:45;;;;;;;;;;;12.30;99.90;;;;;;5015699;28;19909;-68
2022/09/19 08:43:30;;;;;;;;;;;12.30;99.90;;;;;;5015148;28;19952;-69
2022/09/19 08:46:10;;;;;;;;;;;12.30;99.90;;;;;;5014787;28;19909;-68
2022/09/19 08:48:42;;;;;;;;;;;12.40;99.90;;;;;;5015987;28;19960;-68
2022/09/19 08:51:23;;;;;;;;;;;12.40;99.90;;;;;;5015935;28;19905;-69
2022/09/19 08:53:51;;;;;;;;;;;12.50;99.90;;;;;;4997964;28;19929;-68
2022/09/19 08:56:18;;;;;;;;;;;12.50;99.90;;;;;;5015777;28;19951;-68
2022/09/19 08:58:50;;;;;;;;;;;12.50;99.90;;;;;;5015178;28;19928;-70
2022/09/19 09:01:16;;;;;;;;;;;12.50;99.90;;;;;;5015834;28;20051;-68
2022/09/19 09:03:56;;;;;;;;;;;12.60;99.90;;;;;;5016184;28;19909;-68
2022/09/19 09:06:34;;;;;;;;;;;12.60;99.90;;;;;;5014845;28;19963;-67
2022/09/19 09:09:11;;;;;;;;;;;12.60;99.90;;;;;;5015631;28;19910;-68
2022/09/19 09:11:42;;;;;;;;;;;12.70;99.90;;;;;;5013653;28;19925;-68
2022/09/19 09:14:27;;;;;;;;;;;12.70;99.90;;;;;;5012308;28;19905;-68
2022/09/19 09:16:58;;;;;;;;;;;12.80;99.90;;;;;;5013942;28;19913;-67
2022/09/19 09:19:30;;;;;;;;;;;12.90;99.90;;;;;;5013178;28;19971;-67
2022/09/19 09:21:59;;;;;;;;;;;12.90;99.90;;;;;;5012841;28;19914;-68
2022/09/19 09:24:28;;;;;;;;;;;13.00;99.90;;;;;;4995948;28;20025;-68
2022/09/19 09:26:55;;;;;;;;;;;13.00;99.90;;;;;;5014827;28;20519;-68
2022/09/19 09:29:28;;;;;;;;;;;13.10;99.90;;;;;;5010327;28;19909;-67
2022/09/19 09:32:14;;;;;;;;;;;13.10;99.90;;;;;;4997342;28;19922;-68
2022/09/19 09:34:43;;;;;;;;;;;13.10;99.90;;;;;;4996864;28;19952;-68
2022/09/19 09:37:14;;;;;;;;;;;13.20;99.90;;;;;;4992717;28;19910;-67
2022/09/19 09:39:59;;;;;;;;;;;13.20;99.90;;;;;;4988101;28;20340;-68
2022/09/19 09:42:28;;;;;;;;;;;13.10;99.90;;;;;;5014596;28;19929;-66
2022/09/19 09:44:57;;;;;;;;;;;13.10;99.90;;;;;;4997176;28;20000;-69
2022/09/19 09:47:25;;;;;;;;;;;13.20;99.90;;;;;;4996817;28;20273;-67
2022/09/19 09:50:02;;;;;;;;;;;13.20;99.90;;;;;;5014589;28;19906;-67
2022/09/19 09:52:52;;;;;;;;;;;13.20;99.90;;;;;;4996091;28;20266;-69
2022/09/19 09:58:01;;;;;;;;;;;13.30;99.90;;;;;;5004033;28;19979;-68
2022/09/19 10:03:48;;;;;;;;;;;13.30;99.90;;;;;;5001515;28;20387;-69
2022/09/19 10:06:16;;;;;;;;;;;13.30;99.90;;;;;;4998201;28;20004;-70
2022/09/19 10:08:58;;;;;;;;;;;13.40;99.90;;;;;;5005075;28;19957;-67
2022/09/19 10:11:34;;;;;;;;;;;13.50;99.90;;;;;;5007307;28;19940;-70
2022/09/19 10:14:01;;;;;;;;;;;13.60;99.90;;;;;;5004263;28;19963;-68
2022/09/19 10:16:32;;;;;;;;;;;13.60;99.90;;;;;;4983998;28;20393;-66
2022/09/19 10:19:26;;;;;;;;;;;13.70;99.90;;;;;;5010771;28;19995;-70
2022/09/19 10:22:00;;;;;;;;;;;13.80;99.90;;;;;;4978427;28;19932;-68
2022/09/19 10:24:41;;;;;;;;;;;14.00;99.90;;;;;;5010945;28;19941;-67
2022/09/19 10:27:29;;;;;;;;;;;14.10;99.90;;;;;;5006480;28;20000;-69
2022/09/19 10:29:59;;;;;;;;;;;14.20;99.90;;;;;;4984573;28;19909;-69
2022/09/19 10:32:34;;;;;;;;;;;14.20;99.90;;;;;;5008208;28;19964;-68
2022/09/19 10:35:00;;;;;;;;;;;14.20;99.90;;;;;;5011393;28;19971;-70
2022/09/19 10:37:28;;;;;;;;;;;14.20;99.90;;;;;;5003381;28;19921;-67
2022/09/19 10:40:03;;;;;;;;;;;14.10;99.90;;;;;;5004084;28;19905;-68
2022/09/19 10:42:37;;;;;;;;;;;14.10;99.90;;;;;;4992903;28;20019;-67
2022/09/19 10:45:15;;;;;;;;;;;14.20;99.90;;;;;;5011009;28;19955;-68
2022/09/19 10:47:42;;;;;;;;;;;14.20;99.90;;;;;;5002168;28;19914;-68
2022/09/19 10:50:12;;;;;;;;;;;14.20;99.90;;;;;;5007343;28;20010;-67
2022/09/19 10:52:40;;;;;;;;;;;14.20;99.90;;;;;;5007761;28;19913;-68
2022/09/19 10:55:09;;;;;;;;;;;14.10;99.90;;;;;;4980255;28;19914;-67
2022/09/19 10:57:40;;;;;;;;;;;14.10;99.90;;;;;;5008776;28;19972;-69
2022/09/19 11:00:26;;;;;;;;;;;14.10;99.90;;;;;;4990104;28;20080;-68
2022/09/19 11:02:59;;;;;;;;;;;14.10;99.90;;;;;;4987361;28;20404;-68
2022/09/19 11:05:28;;;;;;;;;;;14.10;99.90;;;;;;5009098;28;19916;-68
2022/09/19 11:07:59;;;;;;;;;;;14.10;99.90;;;;;;4986939;28;19913;-69
2022/09/19 11:10:42;;;;;;;;;;;14.10;99.90;;;;;;4995705;28;20273;-68
2022/09/19 11:13:13;;;;;;;;;;;14.10;99.90;;;;;;5012290;28;20365;-67
2022/09/19 11:15:57;;;;;;;;;;;14.10;99.90;;;;;;4988937;28;19909;-66
2022/09/19 11:18:26;;;;;;;;;;;14.00;99.90;;;;;;5011810;28;19932;-69
2022/09/19 11:20:51;;;;;;;;;;;14.10;99.90;;;;;;5012341;28;19921;-67
2022/09/19 11:23:17;;;;;;;;;;;14.00;99.90;;;;;;5012686;28;19959;-69
2022/09/19 11:25:58;;;;;;;;;;;14.00;99.90;;;;;;5012762;28;19917;-68
2022/09/19 11:28:43;;;;;;;;;;;14.00;99.90;;;;;;5006694;28;19956;-67
2022/09/19 11:31:14;;;;;;;;;;;14.00;99.90;;;;;;5009300;28;19906;-66
2022/09/19 11:33:57;;;;;;;;;;;14.00;99.90;;;;;;5012112;28;20396;-67
2022/09/19 11:36:28;;;;;;;;;;;14.00;99.90;;;;;;5005661;28;20005;-68
2022/09/19 11:39:03;;;;;;;;;;;14.10;99.90;;;;;;4998320;28;19952;-69
2022/09/19 11:41:52;;;;;;;;;;;14.30;99.90;;;;;;5012884;28;19959;-67
2022/09/19 11:44:30;;;;;;;;;;;14.60;99.90;;;;;;4992157;28;19909;-67
2022/09/19 11:47:02;;;;;;;;;;;14.80;99.90;;;;;;5000065;28;19921;-68
2022/09/19 11:49:36;;;;;;;;;;;15.00;99.90;;;;;;5012173;28;19964;-66
2022/09/19 11:52:20;;;;;;;;;;;14.90;99.90;;;;;;5012641;28;19948;-69
2022/09/19 11:54:57;;;;;;;;;;;14.80;99.90;;;;;;4996847;28;19921;-69
2022/09/19 11:57:34;;;;;;;;;;;14.70;99.90;;;;;;4983548;28;19910;-68
2022/09/19 12:00:04;;;;;;;;;;;14.50;99.90;;;;;;5010776;28;20423;-69
2022/09/19 12:02:45;;;;;;;;;;;14.40;99.90;;;;;;4989810;28;20403;-70
2022/09/19 12:05:15;;;;;;;;;;;14.30;99.90;;;;;;5009915;28;20389;-67
2022/09/19 12:07:45;;;;;;;;;;;14.10;99.90;;;;;;4989196;28;19910;-68
2022/09/19 12:10:11;;;;;;;;;;;13.90;99.90;;;;;;5006260;28;19925;-68
2022/09/19 12:12:42;;;;;;;;;;;13.70;99.90;;;;;;5004470;28;19917;-68
2022/09/19 12:15:15;;;;;;;;;;;13.60;99.90;;;;;;5001266;28;20274;-68
2022/09/19 12:17:44;;;;;;;;;;;13.50;99.90;;;;;;5005120;28;19916;-69
2022/09/19 12:20:12;;;;;;;;;;;13.50;99.90;;;;;;4986037;28;19956;-67
2022/09/19 12:22:42;;;;;;;;;;;13.40;99.90;;;;;;5003208;28;19914;-69
2022/09/19 12:25:19;;;;;;;;;;;13.30;99.90;;;;;;5010531;28;20384;-68
2022/09/19 12:27:54;;;;;;;;;;;13.40;99.90;;;;;;5004783;28;20357;-67
2022/09/19 12:30:22;;;;;;;;;;;13.40;99.90;;;;;;4998026;28;19910;-67
2022/09/19 12:33:07;;;;;;;;;;;13.50;99.90;;;;;;5002889;28;19972;-67
2022/09/19 12:35:35;;;;;;;;;;;13.60;99.90;;;;;;5002935;28;20396;-65
2022/09/19 12:38:02;;;;;;;;;;;13.80;99.90;;;;;;4998623;28;19909;-68
2022/09/19 12:40:43;;;;;;;;;;;13.80;99.90;;;;;;5014956;28;19909;-68
2022/09/19 12:43:17;;;;;;;;;;;13.90;99.90;;;;;;5014876;28;20222;-69
2022/09/19 12:45:47;;;;;;;;;;;13.90;99.90;;;;;;5009696;28;19920;-70
2022/09/19 12:48:19;;;;;;;;;;;14.00;99.90;;;;;;5010547;28;19909;-68
2022/09/19 12:50:49;;;;;;;;;;;14.20;99.90;;;;;;5013468;28;19909;-68
2022/09/19 12:53:34;;;;;;;;;;;14.40;99.90;;;;;;5014967;28;19914;-69
2022/09/19 12:56:03;;;;;;;;;;;14.50;99.90;;;;;;5015729;28;19917;-67
2022/09/19 12:58:34;;;;;;;;;;;14.70;99.90;;;;;;5015962;28;20277;-65
2022/09/19 13:01:23;;;;;;;;;;;14.90;99.90;;;;;;5015609;28;19906;-67
2022/09/19 13:03:53;;;;;;;;;;;14.90;99.90;;;;;;4934759;29;19906;-66
2022/09/19 13:06:21;;;;;;;;;;;14.90;99.90;;;;;;4932934;29;20453;-67
2022/09/19 13:08:52;;;;;;;;;;;14.80;99.90;;;;;;4933646;29;19962;-67
2022/09/19 13:11:24;;;;;;;;;;;14.80;99.90;;;;;;4933576;29;19907;-68
2022/09/19 13:13:52;;;;;;;;;;;14.80;99.90;;;;;;4933624;29;20394;-68
2022/09/19 13:16:20;;;;;;;;;;;14.90;99.90;;;;;;4933518;29;20301;-67
2022/09/19 13:24:27;;;;;;;;;;;15.20;99.90;;;;;;4935830;29;19962;-68
2022/09/19 13:26:54;;;;;;;;;;;15.40;99.90;;;;;;4935413;29;19942;-68
2022/09/19 13:29:28;;;;;;;;;;;15.50;99.90;;;;;;4935250;29;19907;-68
2022/09/19 13:31:57;;;;;;;;;;;15.70;99.90;;;;;;4935359;29;19922;-68
2022/09/19 13:34:39;;;;;;;;;;;16.10;99.90;;;;;;4935406;29;19914;-68
2022/09/19 13:37:23;;;;;;;;;;;16.50;99.90;;;;;;4935283;29;19961;-69
2022/09/19 13:40:13;;;;;;;;;;;16.90;99.90;;;;;;4941567;28;20053;-68
2022/09/19 13:42:49;;;;;;;;;;;17.40;99.90;;;;;;5015080;28;19905;-68
2022/09/19 13:45:34;;;;;;;;;;;18.00;99.90;;;;;;5015184;28;19983;-69
2022/09/19 13:48:19;;;;;;;;;;;18.60;99.90;;;;;;5014857;28;19992;-69
2022/09/19 13:50:49;;;;;;;;;;;19.20;99.90;;;;;;5015094;28;19913;-69
2022/09/19 13:53:34;;;;;;;;;;;19.60;99.70;;;;;;5014570;28;19913;-67
2022/09/19 13:56:01;;;;;;;;;;;19.90;98.40;;;;;;5014820;28;20384;-68
2022/09/19 13:58:38;;;;;;;;;;;20.00;97.10;;;;;;5014532;28;19910;-68
2022/09/19 14:01:16;;;;;;;;;;;20.10;96.00;;;;;;5014758;28;19916;-68
2022/09/19 14:04:52;;;;;;;;;;;20.10;95.70;;;;;;5014655;28;19936;-68
2022/09/19 14:06:56;;;;;;;;;;;20.20;95.00;;;;;;5014259;28;20106;-69
2022/09/19 14:09:34;;;;;;;;;;;20.30;94.50;;;;;;4997032;28;19906;-69
2022/09/19 14:12:01;;;;;;;;;;;20.20;94.10;;;;;;5014370;28;20019;-69
2022/09/19 14:14:40;;;;;;;;;;;20.00;93.50;;;;;;5014154;28;19913;-69
2022/09/19 14:17:23;;;;;;;;;;;19.70;93.30;;;;;;5014710;28;20391;-69
2022/09/19 14:19:49;;;;;;;;;;;19.40;93.60;;;;;;5014643;28;19912;-68
2022/09/19 14:22:35;;;;;;;;;;;19.20;93.90;;;;;;5014281;28;19916;-68
2022/09/19 14:25:07;;;;;;;;;;;19.20;94.00;;;;;;5014636;28;19984;-69
2022/09/19 14:27:41;;;;;;;;;;;19.50;94.20;;;;;;5013965;28;19905;-69
2022/09/19 14:30:19;;;;;;;;;;;20.00;93.70;;;;;;5014295;28;19964;-68
2022/09/19 14:32:54;;;;;;;;;;;20.30;92.40;;;;;;4996318;28;19913;-69
2022/09/19 14:35:34;;;;;;;;;;;20.30;91.40;;;;;;5014067;28;20008;-69
2022/09/19 14:38:18;;;;;;;;;;;20.10;90.90;;;;;;5013975;28;19909;-69
2022/09/19 14:40:55;;;;;;;;;;;19.90;90.80;;;;;;4996471;28;19906;-68
2022/09/19 14:43:26;;;;;;;;;;;19.60;91.00;;;;;;5013829;28;19910;-68
2022/09/19 14:45:52;;;;;;;;;;;19.30;91.20;;;;;;5014357;28;19917;-69
2022/09/19 14:48:32;;;;;;;;;;;19.10;91.60;;;;;;5013691;28;19905;-68
2022/09/19 14:51:02;;;;;;;;;;;18.90;91.80;;;;;;5013886;28;20389;-69
2022/09/19 14:53:30;;;;;;;;;;;18.70;91.90;;;;;;5014033;28;19914;-67
2022/09/19 14:55:57;;;;;;;;;;;18.40;92.10;;;;;;5014126;28;20265;-69
2022/09/19 14:58:26;;;;;;;;;;;18.30;92.30;;;;;;5013453;28;19906;-69
2022/09/19 15:00:55;;;;;;;;;;;18.10;92.60;;;;;;5013533;28;20331;-68